Time;durP1;ratioP1;P1;durP2;ratioP2;P2;SDS_P1;SDS_P2;PMS_P1;PMS_P2;Temp;Humidity;BMP_temperature;BMP_pressure;BME280_temperature;BME280_humidity;BME280_pressure;Samples;Min_cycle;Max_cycle;Signal;HPM_P1;HPM_P2
2022/05/23 00:01:40;;;;;;;3.70;2.60;;;13.70;99.90;;;;;;5054490;28;20448;-59
2022/05/23 00:04:08;;;;;;;3.00;2.60;;;13.80;99.90;;;;;;5054428;28;20525;-60
2022/05/23 00:06:34;;;;;;;3.73;2.80;;;13.60;99.90;;;;;;5054256;28;20551;-60
2022/05/23 00:09:01;;;;;;;4.50;2.57;;;13.50;99.90;;;;;;5054435;28;20448;-60
2022/05/23 00:11:27;;;;;;;5.47;2.87;;;13.40;99.90;;;;;;5054349;28;20480;-59
2022/05/23 00:13:54;;;;;;;2.90;2.70;;;13.40;99.90;;;;;;5054244;28;20543;-60
2022/05/23 00:16:22;;;;;;;3.90;3.53;;;13.50;99.90;;;;;;5054133;28;20982;-60
2022/05/23 00:18:49;;;;;;;3.20;2.80;;;13.40;99.90;;;;;;5053946;28;20455;-60
2022/05/23 00:21:18;;;;;;;4.53;3.00;;;13.30;99.90;;;;;;5054101;28;21059;-59
2022/05/23 00:23:46;;;;;;;3.40;2.80;;;13.00;99.90;;;;;;5054087;28;20543;-60
2022/05/23 00:26:14;;;;;;;3.80;3.50;;;;;;;;;;5053993;28;20452;-59
2022/05/23 00:28:41;;;;;;;4.03;3.13;;;;;;;;;;5053921;28;20448;-59
2022/05/23 00:31:08;;;;;;;4.17;3.40;;;;;;;;;;5053761;28;20448;-59
2022/05/23 00:36:22;;;;;;;2.93;2.53;;;;;;;;;;5053764;28;20498;-59
2022/05/23 00:38:49;;;;;;;5.30;3.60;;;;;;;;;;5053357;28;20540;-60
2022/05/23 00:44:08;;;;;;;3.53;3.23;;;;;;;;;;5053417;28;20521;-59
2022/05/23 00:46:35;;;;;;;3.80;3.37;;;;;;;;;;5053708;28;20535;-59
2022/05/23 00:49:04;;;;;;;4.70;3.83;;;;;;;;;;5053647;28;20551;-59
2022/05/23 00:51:33;;;;;;;4.90;4.23;;;;;;;;;;5053444;28;20451;-59
2022/05/23 00:54:01;;;;;;;4.13;3.73;;;;;;;;;;5053897;28;20448;-59
2022/05/23 00:56:31;;;;;;;4.13;3.73;;;;;;;;;;5053285;28;20527;-59
2022/05/23 00:59:03;;;;;;;6.90;4.23;;;;;;;;;;5053465;28;20832;-60
2022/05/23 01:01:33;;;;;;;3.80;3.50;;;;;;;;;;5053542;28;20530;-59
2022/05/23 01:04:00;;;;;;;7.40;4.30;;;;;;;;;;5053558;28;20963;-59
2022/05/23 01:06:27;;;;;;;5.10;4.20;;;;;;;;;;5053395;28;20535;-59
2022/05/23 01:08:56;;;;;;;4.07;3.77;;;;;;;;;;5053181;28;20888;-59
2022/05/23 01:11:24;;;;;;;4.87;3.70;;;;;;;;;;5053417;28;20547;-60
2022/05/23 01:13:53;;;;;;;5.30;4.27;;;;;;;;;;5053097;28;20453;-59
2022/05/23 01:16:20;;;;;;;4.33;4.03;;;;;;;;;;5053161;28;20516;-59
2022/05/23 01:18:47;;;;;;;3.70;3.50;;;;;;;;;;5053123;28;20543;-59
2022/05/23 01:21:16;;;;;;;4.83;3.90;;;;;;;;;;5052926;28;20523;-60
2022/05/23 01:23:46;;;;;;;6.40;3.83;;;;;;;;;;5053002;28;20459;-60
2022/05/23 01:26:15;;;;;;;4.83;4.33;;;;;;;;;;5053109;28;20449;-59
2022/05/23 01:28:42;;;;;;;4.53;3.93;;;;;;;;;;5053145;28;20811;-59
2022/05/23 01:31:11;;;;;;;6.80;4.70;;;;;;;;;;5053037;28;20448;-59
2022/05/23 01:33:38;;;;;;;5.63;4.30;;;;;;;;;;5052955;28;20495;-59
2022/05/23 01:36:06;;;;;;;6.30;4.10;;;;;;;;;;5052737;28;20448;-60
2022/05/23 01:38:33;;;;;;;4.50;4.10;;;;;;;;;;5052996;28;20463;-60
2022/05/23 01:41:00;;;;;;;5.80;4.23;;;;;;;;;;5052755;28;20490;-59
2022/05/23 01:43:28;;;;;;;5.77;4.40;;;;;;;;;;5052805;28;21330;-59
2022/05/23 01:45:58;;;;;;;4.53;3.97;;;;;;;;;;5052859;28;20547;-59
2022/05/23 01:48:25;;;;;;;4.10;3.90;;;;;;;;;;5052791;28;20456;-59
2022/05/23 01:50:52;;;;;;;6.47;4.87;;;;;;;;;;5055752;28;20539;-59
2022/05/23 01:53:19;;;;;;;5.90;5.40;;;;;;;;;;5056915;28;20454;-60
2022/05/23 01:55:46;;;;;;;6.57;4.90;;;;;;;;;;5056966;28;20448;-59
2022/05/23 01:58:13;;;;;;;6.13;5.47;;;;;;;;;;5056786;28;20543;-59
2022/05/23 02:03:26;;;;;;;7.63;5.40;;;;;;;;;;5056741;28;20443;-59
2022/05/23 02:05:53;;;;;;;4.97;4.53;;;;;;;;;;5056762;28;20448;-59
2022/05/23 02:08:19;;;;;;;5.40;4.60;;;;;;;;;;5056654;28;20811;-59
2022/05/23 02:10:46;;;;;;;5.13;4.63;;;;;;;;;;5056618;28;20452;-59
2022/05/23 02:13:13;;;;;;;5.90;4.80;;;;;;;;;;5056531;28;20455;-59
2022/05/23 02:15:42;;;;;;;4.93;4.53;;;;;;;;;;5056400;28;20814;-59
2022/05/23 02:18:09;;;;;;;6.27;5.10;;;;;;;;;;5056590;28;21015;-59
2022/05/23 02:20:36;;;;;;;5.53;4.90;;;;;;;;;;5056219;28;20484;-59
2022/05/23 02:23:04;;;;;;;7.73;4.87;;;;;;;;;;5056337;28;20451;-59
2022/05/23 02:25:31;;;;;;;6.67;5.33;;;;;;;;;;5056219;28;20474;-59
2022/05/23 02:27:58;;;;;;;5.10;4.80;;;;;;;;;;5056118;28;20451;-59
2022/05/23 02:30:25;;;;;;;5.00;4.60;;;;;;;;;;5056294;28;20448;-59
2022/05/23 02:32:53;;;;;;;4.67;4.37;;;;;;;;;;5056197;28;20635;-59
2022/05/23 02:35:21;;;;;;;5.90;5.30;;;;;;;;;;5056172;28;20498;-59
2022/05/23 02:37:48;;;;;;;5.30;4.87;;;;;;;;;;5055933;28;21006;-59
2022/05/23 02:40:15;;;;;;;5.20;4.77;;;;;;;;;;5055807;28;20971;-59
2022/05/23 02:42:43;;;;;;;5.80;5.23;;;;;;;;;;5055424;28;20488;-59
2022/05/23 02:45:10;;;;;;;6.50;4.93;;;;;;;;;;5054747;28;20448;-59
2022/05/23 02:47:38;;;;;;;5.53;5.20;;;;;;;;;;5054714;28;20448;-59
2022/05/23 02:50:07;;;;;;;6.97;5.23;;;;;;;;;;5054596;28;20459;-59
2022/05/23 02:52:34;;;;;;;5.00;4.57;;;;;;;;;;5054459;28;20452;-59
2022/05/23 02:55:01;;;;;;;4.63;4.33;;;;;;;;;;5054412;28;20543;-60
2022/05/23 02:57:28;;;;;;;6.47;5.10;;;;;;;;;;5054411;28;20467;-59
2022/05/23 02:59:55;;;;;;;5.80;5.30;;;;;;;;;;5054555;28;20811;-59
2022/05/23 03:05:09;;;;;;;5.40;4.90;;;;;;;;;;5054374;28;20815;-59
2022/05/23 03:07:36;;;;;;;5.80;5.30;;;;;;;;;;5054175;28;20463;-59
2022/05/23 03:10:04;;;;;;;6.07;5.43;;;;;;;;;;5054396;28;20556;-59
2022/05/23 03:12:31;;;;;;;6.40;5.30;;;;;;;;;;5054385;28;20502;-59
2022/05/23 03:14:58;;;;;;;6.97;5.33;;;;;;;;;;5054279;28;20543;-59
2022/05/23 03:17:25;;;;;;;5.40;4.97;;;;;;;;;;5054205;28;20450;-59
2022/05/23 03:19:52;;;;;;;4.50;4.20;;;;;;;;;;5054010;28;20539;-59
2022/05/23 03:28:04;;;;;;;5.60;5.20;;;;;;;;;;5012293;28;20452;-60
2022/05/23 03:30:31;;;;;;;6.07;5.57;;;;;;;;;;5035460;28;20452;-59
2022/05/23 03:32:58;;;;;;;7.23;6.50;;;;;;;;;;5054078;28;20539;-59
2022/05/23 03:35:26;;;;;;;6.40;5.80;;;;;;;;;;5053970;28;20539;-59
2022/05/23 03:37:54;;;;;;;7.50;6.00;;;;;;;;;;5053941;28;20452;-59
2022/05/23 03:40:21;;;;;;;6.10;5.47;;;;;;;;;;5053786;28;20904;-59
2022/05/23 03:42:48;;;;;;;7.50;6.20;;;;;;;;;;5020330;28;959608;-59
2022/05/23 03:45:15;;;;;;;9.97;6.33;;;;;;;;;;5054816;28;20693;-59
2022/05/23 03:47:42;;;;;;;7.10;6.30;;;;;;;;;;5054909;28;20815;-59
2022/05/23 03:50:09;;;;;;;8.93;6.87;;;;;;;;;;5054809;28;20452;-59
2022/05/23 03:52:36;;;;;;;6.70;6.20;;;;;;;;;;5054687;28;20539;-59
2022/05/23 03:55:05;;;;;;;8.63;7.00;;;;;;;;;;5054602;28;20543;-59
2022/05/23 03:57:32;;;;;;;7.87;7.20;;;;;;;;;;5054405;28;20873;-59
2022/05/23 03:59:59;;;;;;;8.50;7.67;;;;;;;;;;5054567;28;20423;-59
2022/05/23 04:02:26;;;;;;;8.93;7.17;;;;;;;;;;5054473;28;20864;-59
2022/05/23 04:04:53;;;;;;;9.07;7.30;;;;;;;;;;5054461;28;20449;-59
2022/05/23 04:07:20;;;;;;;8.37;7.57;;;;;;;;;;5054316;28;20531;-59
2022/05/23 04:09:47;;;;;;;8.60;7.53;;;;;;;;;;5054315;28;20859;-59
2022/05/23 04:12:15;;;;;;;8.57;7.73;;;;;;;;;;5053320;28;21030;-60
2022/05/23 04:14:42;;;;;;;9.00;8.10;;;;;;;;;;5054397;28;20544;-60
2022/05/23 04:17:10;;;;;;;9.20;8.30;;;;;;;;;;5054179;28;20452;-60
2022/05/23 04:19:37;;;;;;;8.97;8.17;;;;;;;;;;5054168;28;20531;-59
2022/05/23 04:22:04;;;;;;;10.77;8.10;;;;;;;;;;5053927;28;20510;-59
2022/05/23 04:24:31;;;;;;;14.20;8.70;;;;;;;;;;5053992;28;20531;-59
2022/05/23 04:26:58;;;;;;;8.10;7.50;;;;;;;;;;5053827;28;20547;-59
2022/05/23 04:29:26;;;;;;;10.73;8.70;;;;;;;;;;5054150;28;20455;-59
2022/05/23 04:31:53;;;;;;;9.53;8.13;;;;;;;;;;5053898;28;20813;-59
2022/05/23 04:37:05;;;;;;;8.27;7.57;;;;;;;;;;5053712;28;20532;-60
2022/05/23 04:39:32;;;;;;;10.10;9.20;;;;;;;;;;5053925;28;20774;-59
2022/05/23 04:42:00;;;;;;;7.20;6.60;;;;;;;;;;5053656;28;20480;-60
2022/05/23 04:44:28;;;;;;;8.80;8.10;;;;;;;;;;5053329;28;20500;-59
2022/05/23 04:49:41;;;;;;;7.53;6.80;;;;;;;;;;5053469;28;20450;-60
2022/05/23 04:52:08;;;;;;;10.40;7.50;;;;;;;;;;5053644;28;20505;-59
2022/05/23 04:54:35;;;;;;;8.30;7.00;;;;;;;;;;5053516;28;20811;-59
2022/05/23 04:57:02;;;;;;;6.73;6.23;;;;;;;;;;5053473;28;20785;-59
2022/05/23 04:59:31;;;;;;;6.53;5.97;;;;;;;;;;5053341;28;20444;-59
2022/05/23 05:01:58;;;;;;;6.83;6.23;;;;;;;;;;5053120;28;20482;-59
2022/05/23 05:04:24;;;;;;;7.03;6.40;;;;;;;;;;5053115;28;20532;-59
2022/05/23 05:06:51;;;;;;;7.63;5.50;;;;;;;;;;5053283;28;20546;-59
2022/05/23 05:09:18;;;;;;;6.00;5.20;;;;;;;;;;5053268;28;20458;-59
2022/05/23 05:11:45;;;;;;;10.37;6.43;;;;;;;;;;5053194;28;20448;-59
2022/05/23 05:14:12;;;;;;;6.80;6.10;;;;;;;;;;5053139;28;20815;-59
2022/05/23 05:16:41;;;;;;;6.87;6.30;;;;;;;;;;5053076;28;20547;-59
2022/05/23 05:19:07;;;;;;;5.10;4.70;;;;;;;;;;5053040;28;20910;-60
2022/05/23 05:21:34;;;;;;;6.67;6.07;;;;;;;;;;5053043;28;20483;-59
2022/05/23 05:24:01;;;;;;;7.27;6.03;;;;;;;;;;5052963;28;20986;-59
2022/05/23 05:26:29;;;;;;;5.40;4.90;;;;;;;;;;5053069;28;20543;-59
2022/05/23 05:28:56;;;;;;;14.97;10.77;;;;;;;;;;5053307;28;20444;-59
2022/05/23 05:31:24;;;;;;;4.97;4.57;;;;;;;;;;5052867;28;20538;-59
2022/05/23 05:33:55;;;;;;;6.33;5.73;;;;;;;;;;5053049;28;20863;-60
2022/05/23 05:36:24;;;;;;;5.23;4.77;;;;;;;;;;5052529;28;20562;-60
2022/05/23 05:38:52;;;;;;;6.10;4.60;;;;;;;;;;5052704;28;20539;-60
2022/05/23 05:41:22;;;;;;;5.07;4.33;;;;;;;;;;5052494;28;20469;-59
2022/05/23 05:43:52;;;;;;;4.70;4.27;;;;;;;;;;5052278;28;20480;-60
2022/05/23 05:46:20;;;;;;;6.93;4.43;;;;;;;;;;5052408;28;21009;-60
2022/05/23 05:48:48;;;;;;;5.73;4.47;;;;;;;;;;5052655;28;20555;-60
2022/05/23 05:51:18;;;;;;;7.63;3.47;;;;;;;;;;5052836;28;20451;-60
2022/05/23 05:53:45;;;;;;;4.20;3.80;;;;;;;;;;5053018;28;20547;-60
2022/05/23 05:56:12;;;;;;;3.63;3.33;;;;;;;;;;5052558;28;20543;-60
2022/05/23 05:58:39;;;;;;;7.87;3.53;;;;;;;;;;5052477;28;20890;-60
2022/05/23 06:01:07;;;;;;;5.80;3.50;;;;;;;;;;5052234;28;20562;-60
2022/05/23 06:03:34;;;;;;;2.90;2.70;;;;;;;;;;5052456;28;20551;-60
2022/05/23 06:11:32;;;;;;;3.07;2.80;;;;;;;;;;5052380;28;20482;-60
2022/05/23 06:14:00;;;;;;;4.70;3.30;;;;;;;;;;5052320;28;20531;-60
2022/05/23 06:16:28;;;;;;;5.20;2.90;;;;;;;;;;5052392;28;20448;-60
2022/05/23 06:18:55;;;;;;;3.30;3.00;;;;;;;;;;5052385;28;20972;-59
2022/05/23 06:21:22;;;;;;;4.63;3.60;;;;;;;;;;5052068;28;20813;-59
2022/05/23 06:23:51;;;;;;;2.97;2.67;;;;;;;;;;5052428;28;20547;-59
2022/05/23 06:26:21;;;;;;;3.40;3.10;;;;;;;;;;5052259;28;20484;-60
2022/05/23 06:28:48;;;;;;;3.43;2.80;;;;;;;;;;5052393;28;20539;-60
2022/05/23 06:31:16;;;;;;;3.20;3.00;;;;;;;;;;5052256;28;20449;-59
2022/05/23 06:33:43;;;;;;;4.37;2.80;;;;;;;;;;5051961;28;20448;-60
2022/05/23 06:36:10;;;;;;;3.70;2.87;;;;;;;;;;5053790;28;20444;-60
2022/05/23 06:38:38;;;;;;;2.90;2.57;;;;;;;;;;5055837;28;20916;-60
2022/05/23 06:41:07;;;;;;;6.53;2.80;;;;;;;;;;5055944;28;22361;-60
2022/05/23 06:43:34;;;;;;;2.83;2.63;;;;;;;;;;5055548;28;20503;-60
2022/05/23 06:46:02;;;;;;;3.60;3.00;;;;;;;;;;5056017;28;20876;-60
2022/05/23 06:48:29;;;;;;;3.30;2.60;;;;;;;;;;5054940;28;20792;-60
2022/05/23 06:50:56;;;;;;;3.30;2.57;;;;;;;;;;5055710;28;20480;-60
2022/05/23 06:53:24;;;;;;;2.40;2.20;;;;;;;;;;5055741;28;20455;-60
2022/05/23 06:55:52;;;;;;;3.57;2.73;;;;;;;;;;5055610;28;20547;-60
2022/05/23 06:58:21;;;;;;;2.87;2.67;;;;;;;;;;5055504;28;20535;-60
2022/05/23 07:00:48;;;;;;;3.33;2.17;;;;;;;;;;5055821;28;20448;-60
2022/05/23 07:03:15;;;;;;;4.70;2.00;;;;;;;;;;5055337;28;20480;-60
2022/05/23 07:14:13;;;;;;;3.97;2.03;;;;;;;;;;5013246;28;20470;-60
2022/05/23 07:16:40;;;;;;;2.00;1.57;;;;;;;;;;5013105;28;20557;-60
2022/05/23 07:19:07;;;;;;;2.83;2.50;;;;;;;;;;5031531;28;20450;-60
2022/05/23 07:21:35;;;;;;;1.97;1.83;;;;;;;;;;5054889;28;20530;-60
2022/05/23 07:24:02;;;;;;;1.80;1.70;;;;;;;;;;5054752;28;20452;-60
2022/05/23 07:26:29;;;;;;;2.93;1.60;;;;;;;;;;5054968;28;20789;-60
2022/05/23 07:28:57;;;;;;;3.83;2.50;;;;;;;;;;5054898;28;20842;-60
2022/05/23 07:31:26;;;;;;;4.07;1.80;;;;;;;;;;5054884;28;20480;-60
2022/05/23 07:33:53;;;;;;;3.00;2.40;;;;;;;;;;5054833;28;20839;-60
2022/05/23 07:36:20;;;;;;;1.73;1.53;;;;;;;;;;5054698;28;20448;-60
2022/05/23 07:38:47;;;;;;;2.50;1.50;;;;;;;;;;5054882;28;20534;-60
2022/05/23 07:41:15;;;;;;;3.53;1.70;;;;;;;;;;5054444;28;20955;-60
2022/05/23 07:43:43;;;;;;;2.87;1.73;;;;;;;;;;5054588;28;20582;-60
2022/05/23 07:46:13;;;;;;;3.07;1.70;;;;;;;;;;5054569;28;20452;-60
2022/05/23 07:48:42;;;;;;;1.73;1.63;;;;;;;;;;5053353;28;20816;-60
2022/05/23 07:51:09;;;;;;;4.53;2.20;;;;;;;;;;5054648;28;20459;-60
2022/05/23 08:01:50;;;;;;;1.90;1.80;;;;;;;;;;5054272;28;20506;-60
2022/05/23 08:04:19;;;;;;;2.83;1.87;;;;;;;;;;5054688;28;20858;-60
2022/05/23 08:06:46;;;;;;;3.43;1.63;;;;;;;;;;5054235;28;20887;-60
2022/05/23 08:09:13;;;;;;;2.37;1.70;;;;;;;;;;5054179;28;20890;-60
2022/05/23 08:11:41;;;;;;;4.40;1.70;;;;;;;;;;5053989;28;20819;-60
2022/05/23 08:14:08;;;;;;;2.97;1.60;;;;;;;;;;5054236;28;20807;-60
2022/05/23 08:16:36;;;;;;;1.70;1.60;;;;;;;;;;5054205;28;20538;-60
2022/05/23 08:19:03;;;;;;;3.27;2.00;;;;;;;;;;5054015;28;20440;-60
2022/05/23 08:21:32;;;;;;;3.23;1.67;;;;;;;;;;5053802;28;20535;-60
2022/05/23 08:23:59;;;;;;;5.13;1.70;;;;;;;;;;5053734;28;20481;-60
2022/05/23 08:26:27;;;;;;;2.20;2.00;;;;;;;;;;5053615;28;20448;-60
2022/05/23 08:28:54;;;;;;;2.17;1.97;;;;;;;;;;5053964;28;20531;-60
2022/05/23 08:31:21;;;;;;;4.10;2.10;;;;;;;;;;5053807;28;20448;-60
2022/05/23 08:33:48;;;;;;;2.70;1.67;;;;;;;;;;5053706;28;20444;-60
2022/05/23 08:36:15;;;;;;;4.37;1.87;;;;;;;;;;5053684;28;20830;-60
2022/05/23 08:38:43;;;;;;;3.13;1.80;;;;;;;;;;5053595;28;20899;-61
2022/05/23 08:41:17;;;;;;;2.20;1.30;;;;;;;;;;5053444;28;21006;-60
2022/05/23 08:43:50;;;;;;;1.60;1.40;;;;;;;;;;5053351;28;20847;-60
2022/05/23 08:46:19;;;;;;;4.13;1.77;;;;;;;;;;5052278;28;20455;-60
2022/05/23 08:48:54;;;;;;;4.90;1.50;;;;;;;;;;5055165;28;20460;-62
2022/05/23 08:51:26;;;;;;;1.40;1.30;;;;;;;;;;5053647;28;20444;-59
2022/05/23 08:53:59;;;;;;;2.70;1.33;;;;;;;;;;5053619;28;20521;-59
2022/05/23 08:56:28;;;;;;;4.43;1.20;;;;;;;;;;5052882;28;20480;-54
2022/05/23 08:58:56;;;;;;;3.80;1.50;;;;;;;;;;5043916;28;20496;-60
2022/05/23 09:01:25;;;;;;;1.80;1.07;;;;;;;;;;5051506;28;21018;-62
2022/05/23 09:03:54;;;;;;;1.87;1.17;;;;;;;;;;5044445;28;20503;-62
2022/05/23 09:06:26;;;;;;;2.07;1.20;;;;;;;;;;5046173;28;20452;-62
2022/05/23 09:08:55;;;;;;;1.43;1.07;;;;;;;;;;5053093;28;20436;-62
2022/05/23 09:11:26;;;;;;;1.53;1.37;;;;;;;;;;5052434;28;20890;-62
2022/05/23 09:13:53;;;;;;;2.57;1.20;;;;;;;;;;5033038;28;20464;-63
2022/05/23 09:16:20;;;;;;;3.07;1.10;;;;;;;;;;5049130;28;20883;-59
2022/05/23 09:18:50;;;;;;;2.23;0.97;;;;;;;;;;5033225;28;20544;-63
2022/05/23 09:21:17;;;;;;;2.60;1.00;;;;;;;;;;5037124;28;20502;-63
2022/05/23 09:23:47;;;;;;;1.00;0.90;;;;;;;;;;5060829;28;20502;-64
2022/05/23 09:26:18;;;;;;;2.00;1.17;;;;;;;;;;5072643;28;20447;-61
2022/05/23 09:28:45;;;;;;;2.73;1.10;;;;;;;;;;5056533;28;21003;-66
2022/05/23 09:31:19;;;;;;;2.50;1.30;;;;;;;;;;5052295;28;20544;-63
2022/05/23 09:33:46;;;;;;;1.40;1.00;;;;;;;;;;5052774;28;20462;-64
2022/05/23 09:36:16;;;;;;;2.00;1.37;;;;;;;;;;5053297;28;20456;-64
2022/05/23 09:38:47;;;;;;;11.23;1.63;;;;;;;;;;5051459;28;20543;-62
2022/05/23 09:41:28;;;;;;;2.80;1.10;;;;;;;;;;5049588;28;20491;-58
2022/05/23 09:49:30;;;;;;;1.43;1.33;;;;;;;;;;5049489;28;20530;-56
2022/05/23 09:51:58;;;;;;;2.57;1.40;;;;;;;;;;5051730;28;20466;-57
2022/05/23 09:54:28;;;;;;;1.30;1.20;;;;;;;;;;5053411;28;20457;-60
2022/05/23 09:56:58;;;;;;;1.90;1.30;;;;;;;;;;5054775;28;20494;-59
2022/05/23 09:59:28;;;;;;;4.00;1.43;;;;;;;;;;5050547;28;20488;-59
2022/05/23 10:01:55;;;;;;;3.73;1.30;;;;;;;;;;5052169;28;20487;-60
2022/05/23 10:04:28;;;;;;;2.60;1.37;;;;;;;;;;5051349;28;20448;-59
2022/05/23 10:06:55;;;;;;;2.70;1.20;;;;;;;;;;5054517;28;21009;-60
2022/05/23 10:09:33;;;;;;;3.77;1.30;;;;;;;;;;5055659;28;20512;-59
2022/05/23 10:12:04;;;;;;;1.73;1.40;;;;;;;;;;5055708;28;20456;-59
2022/05/23 10:14:45;;;;;;;5.17;1.57;;;;;;;;;;5058785;28;20462;-59
2022/05/23 10:17:24;;;;;;;4.00;1.43;;;;;;;;;;5056336;28;20448;-60
2022/05/23 10:19:51;;;;;;;1.43;1.10;;;;;;;;;;5055441;28;20536;-57
2022/05/23 10:22:20;;;;;;;1.50;1.40;;;;;;;;;;5067707;28;20555;-57
2022/05/23 10:24:56;;;;;;;2.37;1.50;;;22.40;99.90;;;;;;5036108;28;20453;-59
2022/05/23 10:27:37;;;;;;;2.03;1.10;;;22.20;99.90;;;;;;5035954;28;20535;-58
2022/05/23 10:30:07;;;;;;;2.13;1.30;;;22.40;99.90;;;;;;5044506;28;20491;-57
2022/05/23 10:32:41;;;;;;;3.27;1.40;;;22.40;99.30;;;;;;5044560;28;20487;-59
2022/05/23 10:35:15;;;;;;;2.73;1.43;;;22.20;99.90;;;;;;5055836;28;20538;-61
2022/05/23 10:37:44;;;;;;;4.90;1.37;;;22.30;99.90;;;;;;5055639;28;20876;-64
2022/05/23 10:43:06;;;;;;;1.73;1.40;;;22.40;99.10;;;;;;5041326;28;20508;-61
2022/05/23 10:45:39;;;;;;;2.83;1.40;;;22.30;98.70;;;;;;5057344;28;20540;-61
2022/05/23 10:48:20;;;;;;;1.83;1.37;;;22.60;99.90;;;;;;5054797;28;20448;-61
2022/05/23 10:50:53;;;;;;;2.23;1.43;;;22.90;98.80;;;;;;5055675;28;20448;-61
2022/05/23 10:53:33;;;;;;;2.20;1.17;;;22.90;99.10;;;;;;5056882;28;20530;-61
2022/05/23 10:56:09;;;;;;;1.40;1.20;;;22.90;98.30;;;;;;5055544;28;20998;-61
2022/05/23 10:58:45;;;;;;;3.07;1.67;;;22.80;97.80;;;;;;5053555;28;20467;-61
2022/05/23 11:01:23;;;;;;;3.90;1.33;;;23.00;98.70;;;;;;5058597;28;20448;-61
2022/05/23 11:04:01;;;;;;;1.93;1.40;;;23.20;98.90;;;;;;5063333;28;20587;-65
2022/05/23 11:06:39;;;;;;;1.77;1.43;;;23.40;98.30;;;;;;5054705;28;20452;-62
2022/05/23 11:09:17;;;;;;;1.80;1.40;;;23.20;96.60;;;;;;5058594;28;20551;-64
2022/05/23 11:11:57;;;;;;;1.60;1.47;;;23.00;97.00;;;;;;5055122;28;20448;-66
2022/05/23 11:14:33;;;;;;;3.13;1.50;;;23.10;98.20;;;;;;5053410;28;20466;-65
2022/05/23 11:17:04;;;;;;;2.67;1.50;;;23.10;97.70;;;;;;5042556;28;20448;-66
2022/05/23 11:19:41;;;;;;;1.47;1.10;;;23.40;97.20;;;;;;5054835;28;20491;-61
2022/05/23 11:22:15;;;;;;;1.73;1.63;;;23.50;97.50;;;;;;5054927;28;20462;-61
2022/05/23 11:24:48;;;;;;;4.23;2.30;;;23.80;96.80;;;;;;5054107;28;20460;-60
2022/05/23 11:35:48;;;;;;;2.77;1.70;;;24.10;97.10;;;;;;5055147;28;20513;-62
2022/05/23 11:38:16;;;;;;;2.33;1.63;;;23.90;96.10;;;;;;5054407;28;20448;-59
2022/05/23 11:41:09;;;;;;;1.50;1.40;;;23.80;96.60;;;;;;5054788;28;20459;-60
2022/05/23 11:43:35;;;;;;;1.90;1.70;;;23.60;96.90;;;;;;5044520;28;20490;-55
2022/05/23 11:46:06;;;;;;;1.97;1.50;;;23.40;96.10;;;;;;5054408;28;20543;-58
2022/05/23 11:48:47;;;;;;;2.60;1.47;;;22.80;96.10;;;;;;5054485;28;20543;-62
2022/05/23 11:51:26;;;;;;;2.63;1.47;;;22.80;98.10;;;;;;5058879;28;20908;-61
2022/05/23 11:53:58;;;;;;;1.93;1.50;;;23.10;96.50;;;;;;5060562;28;20880;-61
2022/05/23 11:56:41;;;;;;;2.70;1.70;;;23.00;96.30;;;;;;5045595;28;20493;-59
2022/05/23 11:59:10;;;;;;;1.30;1.20;;;22.80;96.90;;;;;;5034651;28;20541;-60
2022/05/23 12:01:39;;;;;;;2.07;1.87;;;23.10;96.80;;;;;;5034362;28;20892;-59
2022/05/23 12:04:18;;;;;;;1.80;1.70;;;23.10;95.80;;;;;;5034171;28;20496;-59
2022/05/23 12:06:45;;;;;;;3.87;2.07;;;22.90;96.50;;;;;;5034276;28;20540;-59
2022/05/23 12:09:36;;;;;;;2.40;1.57;;;22.80;96.70;;;;;;5034199;28;20449;-59
2022/05/23 12:12:34;;;;;;;1.57;1.47;;;23.00;96.50;;;;;;5034358;28;20445;-59
2022/05/23 12:15:00;;;;;;;1.63;1.30;;;23.10;96.30;;;;;;5034190;28;20480;-59
2022/05/23 12:17:31;;;;;;;3.50;1.60;;;23.10;97.20;;;;;;5033681;28;20461;-60
2022/05/23 12:20:00;;;;;;;1.97;1.27;;;23.10;96.50;;;;;;5047588;28;20455;-65
2022/05/23 12:22:30;;;;;;;3.10;1.17;;;23.50;95.20;;;;;;5049881;28;21041;-66
2022/05/23 12:25:17;;;;;;;2.40;1.30;;;23.80;96.50;;;;;;5048546;28;20456;-65
2022/05/23 12:28:03;;;;;;;2.80;1.33;;;24.20;95.40;;;;;;5040122;28;20952;-63
2022/05/23 12:30:44;;;;;;;2.50;1.20;;;24.30;95.10;;;;;;5049360;28;20491;-62
2022/05/23 12:33:30;;;;;;;2.23;1.60;;;24.50;95.60;;;;;;5033276;28;20496;-60
2022/05/23 12:35:59;;;;;;;2.30;1.10;;;24.50;95.20;;;;;;5044503;28;20512;-58
2022/05/23 12:38:36;;;;;;;2.50;1.13;;;23.80;93.40;;;;;;5053432;28;20538;-59
2022/05/23 12:41:16;;;;;;;1.47;1.20;;;23.70;94.10;;;;;;5053785;28;20448;-59
2022/05/23 12:43:58;;;;;;;2.50;1.20;;;23.60;94.10;;;;;;5053916;28;20502;-60
2022/05/23 12:46:35;;;;;;;2.40;1.30;;;23.50;95.10;;;;;;5052034;28;20502;-58
2022/05/23 12:49:18;;;;;;;3.07;1.43;;;23.70;95.20;;;;;;5052786;28;20448;-58
2022/05/23 12:51:54;;;;;;;1.97;1.50;;;23.70;93.80;;;;;;5053461;28;20444;-58
2022/05/23 12:54:28;;;;;;;3.97;1.80;;;23.40;94.50;;;;;;5053374;28;20447;-59
2022/05/23 12:57:12;;;;;;;2.53;1.43;;;23.30;94.20;;;;;;5053273;28;20447;-59
2022/05/23 12:59:48;;;;;;;2.10;1.40;;;23.40;95.30;;;;;;5053432;28;20448;-59
2022/05/23 13:02:19;;;;;;;1.73;1.30;;;23.60;94.50;;;;;;5053995;28;20864;-59
2022/05/23 13:04:50;;;;;;;2.40;1.70;;;23.70;94.20;;;;;;5053030;28;20571;-59
2022/05/23 13:07:21;;;;;;;1.40;1.30;;;23.70;94.90;;;;;;5053007;28;20459;-57
2022/05/23 13:09:53;;;;;;;2.07;1.60;;;23.70;94.40;;;;;;5055530;28;21008;-62
2022/05/23 13:12:24;;;;;;;2.03;1.27;;;23.80;93.50;;;;;;5044772;28;20477;-62
2022/05/23 13:14:53;;;;;;;1.87;1.30;;;23.60;93.70;;;;;;5055091;28;20547;-62
2022/05/23 13:17:47;;;;;;;2.43;1.27;;;23.70;94.90;;;;;;5050718;28;20527;-62
2022/05/23 13:23:18;;;;;;;2.33;1.43;;;23.80;93.40;;;;;;5051732;28;20475;-62
2022/05/23 13:25:45;;;;;;;1.33;1.23;;;24.00;92.60;;;;;;5052690;28;20480;-62
2022/05/23 13:28:15;;;;;;;2.97;1.43;;;23.90;92.90;;;;;;5051465;28;20476;-62
2022/05/23 13:30:44;;;;;;;2.37;1.47;;;24.10;93.90;;;;;;5052734;28;20966;-63
2022/05/23 13:33:14;;;;;;;3.80;1.10;;;24.40;93.00;;;;;;5053127;28;20452;-62
2022/05/23 13:35:43;;;;;;;2.07;1.80;;;24.50;93.00;;;;;;5052716;28;20448;-63
2022/05/23 13:38:18;;;;;;;1.87;1.37;;;24.70;93.00;;;;;;5052532;28;20464;-62
2022/05/23 13:40:47;;;;;;;2.30;1.33;;;24.50;92.30;;;;;;5052663;28;20551;-62
2022/05/23 13:43:16;;;;;;;2.80;1.47;;;24.30;91.70;;;;;;5052619;28;20476;-62
2022/05/23 13:45:44;;;;;;;3.03;1.77;;;24.30;91.80;;;;;;5055127;28;20935;-63
2022/05/23 13:48:16;;;;;;;2.80;1.50;;;24.30;92.20;;;;;;5056904;28;20448;-62
2022/05/23 13:50:48;;;;;;;3.50;1.17;;;24.10;92.00;;;;;;5056810;28;20444;-62
2022/05/23 13:53:19;;;;;;;1.40;1.30;;;23.90;92.10;;;;;;5056738;28;20458;-62
2022/05/23 13:55:49;;;;;;;2.47;1.70;;;23.90;92.30;;;;;;5056898;28;20887;-62
2022/05/23 13:58:19;;;;;;;2.43;1.33;;;24.00;93.10;;;;;;5056609;28;20535;-63
2022/05/23 14:00:53;;;;;;;1.27;1.10;;;23.90;91.90;;;;;;5056748;28;20471;-63
2022/05/23 14:03:26;;;;;;;1.40;1.30;;;24.00;92.20;;;;;;5056317;28;20989;-62
2022/05/23 14:05:56;;;;;;;3.03;1.33;;;23.90;91.40;;;;;;5056445;28;20514;-62
2022/05/23 14:08:33;;;;;;;4.93;1.50;;;24.30;92.00;;;;;;5056415;28;20855;-63
2022/05/23 14:11:01;;;;;;;2.60;1.20;;;24.30;91.80;;;;;;5056477;28;20455;-63
2022/05/23 14:13:30;;;;;;;2.30;1.40;;;24.60;92.30;;;;;;5056300;28;20478;-62
2022/05/23 14:15:57;;;;;;;3.47;1.30;;;24.90;91.90;;;;;;5056278;28;20497;-62
2022/05/23 14:18:32;;;;;;;1.77;1.40;;;25.10;91.80;;;;;;5056189;28;20869;-63
2022/05/23 14:21:00;;;;;;;1.20;1.10;;;25.10;91.00;;;;;;5056523;28;20454;-63
2022/05/23 14:23:30;;;;;;;2.10;1.40;;;24.90;91.00;;;;;;5056250;28;20472;-62
2022/05/23 14:26:20;;;;;;;1.60;1.50;;;24.90;90.70;;;;;;5056595;28;20852;-63
2022/05/23 14:28:55;;;;;;;1.97;1.17;;;25.00;91.00;;;;;;5056173;28;20944;-63
2022/05/23 14:31:38;;;;;;;1.43;1.23;;;25.00;89.80;;;;;;5056220;28;20452;-63
2022/05/23 14:34:08;;;;;;;3.10;1.43;;;24.80;90.10;;;;;;5056100;28;20585;-63
2022/05/23 14:36:36;;;;;;;1.43;1.20;;;24.80;91.70;;;;;;5056041;28;20444;-62
2022/05/23 14:39:05;;;;;;;4.23;1.27;;;24.90;90.50;;;;;;5055877;28;20785;-63
2022/05/23 14:41:34;;;;;;;3.53;1.43;;;24.80;90.80;;;;;;5056140;28;20888;-63
2022/05/23 14:44:02;;;;;;;1.70;1.43;;;24.50;90.10;;;;;;5055467;28;20979;-63
2022/05/23 14:46:30;;;;;;;1.50;1.40;;;24.50;90.20;;;;;;5055807;28;20539;-62
2022/05/23 14:48:59;;;;;;;1.63;1.20;;;24.50;91.10;;;;;;5055640;28;20954;-62
2022/05/23 14:51:29;;;;;;;1.50;1.40;;;24.50;90.50;;;;;;5055581;28;20526;-62
2022/05/23 14:56:53;;;;;;;2.70;1.33;;;24.30;90.50;;;;;;5054668;28;20486;-63
2022/05/23 15:02:17;;;;;;;1.40;1.30;;;24.40;90.60;;;;;;5055410;28;20506;-62
2022/05/23 15:04:43;;;;;;;2.80;1.63;;;24.50;91.30;;;;;;5055565;28;20908;-63
2022/05/23 15:07:10;;;;;;;1.57;1.27;;;24.50;91.60;;;;;;5055443;28;20480;-63
2022/05/23 15:09:38;;;;;;;1.40;1.30;;;24.50;91.30;;;;;;5055368;28;20452;-62
2022/05/23 15:12:09;;;;;;;3.13;1.43;;;24.50;90.40;;;;;;5055421;28;20541;-63
2022/05/23 15:14:36;;;;;;;2.30;1.23;;;24.30;90.00;;;;;;5055090;28;20958;-63
2022/05/23 15:17:03;;;;;;;2.77;1.50;;;24.20;90.40;;;;;;5055039;28;20448;-63
2022/05/23 15:19:29;;;;;;;1.67;1.30;;;24.20;90.60;;;;;;5055183;28;20451;-63
2022/05/23 15:21:56;;;;;;;1.60;1.47;;;24.30;91.10;;;;;;5055108;28;20452;-62
2022/05/23 15:24:22;;;;;;;4.70;1.60;;;24.50;91.50;;;;;;5054967;28;20483;-63